Decoded Metar for KROX (ROSEAU MUNI in MN, USA) (IATA:ROX) | Meteo·Mobile Aviation Weather
aviador You're here:

KROX Decoded Metar

ROSEAU MUNI in MN, USA
Report Time2019-06-18 15:04:00
UTC Time2019-06-18 15:21:45
Flight Rules vfr VFR
WindCalm
Visibility9999 m
Phenomena:N/A
Clouds:N/A
Expected CloudBase > 2,000 ft AGL from Temp-Dew spread
CeilingNone
Temp17°C (ISA +4)
Dew Point12°C (73% RH)
QNH1017 hPa
Density Alt1,601 ft
Elevation1,060 ft
Report Wrong Elevation
Raw Report
KROX 181504Z AUTO 00000KT 10SM CLR 17/12 A3003 RMK AO2=

Extra information for KROX:More info

Metar Taf Metar & Taf Last 4 Metars F.Rules Stats Wind Profile Meteogram Temp Stats Airport Information Weather charts Add Link Nearby VenuesMetar ALERT Operation Metar Decoded Social comments

AIRNAV info for KROX